createdAt,value
2023-05-20T00:02:09.936Z,9.94
2023-05-20T00:04:36.532Z,10.12
2023-05-20T00:07:03.885Z,10.27
2023-05-20T00:09:30.426Z,10.30
2023-05-20T00:11:56.937Z,10.19
2023-05-20T00:14:23.542Z,10.07
2023-05-20T00:16:50.170Z,10.06
2023-05-20T00:19:18.678Z,10.04
2023-05-20T00:21:45.255Z,9.93
2023-05-20T00:24:11.777Z,9.90
2023-05-20T00:26:38.306Z,9.96
2023-05-20T00:29:04.817Z,9.95
2023-05-20T00:31:31.372Z,10.08
2023-05-20T00:33:57.923Z,9.98
2023-05-20T00:36:24.496Z,10.15
2023-05-20T00:38:51.370Z,10.18
2023-05-20T00:41:17.886Z,10.10
2023-05-20T00:43:44.396Z,10.19
2023-05-20T00:46:10.967Z,10.24
2023-05-20T00:48:41.687Z,10.08
2023-05-20T00:51:08.263Z,10.05
2023-05-20T00:53:35.476Z,9.92
2023-05-20T00:56:02.574Z,9.97
2023-05-20T00:58:29.074Z,9.86
2023-05-20T01:00:55.703Z,9.70
2023-05-20T01:03:22.528Z,9.69
2023-05-20T01:05:49.226Z,9.60
2023-05-20T01:08:15.948Z,9.61
2023-05-20T01:10:43.122Z,9.58
2023-05-20T01:13:11.544Z,9.76
2023-05-20T01:15:38.276Z,9.64
2023-05-20T01:18:06.155Z,9.62
2023-05-20T01:20:33.194Z,9.57
2023-05-20T01:23:00.003Z,9.61
2023-05-20T01:25:26.635Z,9.51
2023-05-20T01:27:54.233Z,9.51
2023-05-20T01:30:21.189Z,9.51
2023-05-20T01:32:52.874Z,9.41
2023-05-20T01:35:20.761Z,9.38
2023-05-20T01:37:47.282Z,9.60
2023-05-20T01:40:15.136Z,9.55
2023-05-20T01:42:42.150Z,9.59
2023-05-20T01:45:09.010Z,9.62
2023-05-20T01:47:35.586Z,9.72
2023-05-20T01:50:02.113Z,9.68
2023-05-20T01:52:28.660Z,9.69
2023-05-20T01:54:55.256Z,9.71
2023-05-20T01:57:22.013Z,9.67
2023-05-20T01:59:48.546Z,9.70
2023-05-20T02:02:15.407Z,9.69
2023-05-20T02:04:44.011Z,9.64
2023-05-20T02:07:10.524Z,9.65
2023-05-20T02:09:37.729Z,9.62
2023-05-20T02:12:04.426Z,9.53
2023-05-20T02:14:31.054Z,9.53
2023-05-20T02:16:57.798Z,9.49
2023-05-20T02:19:26.883Z,9.40
2023-05-20T02:21:53.491Z,9.38
2023-05-20T02:24:21.303Z,9.34
2023-05-20T02:26:49.574Z,9.22
2023-05-20T02:29:16.204Z,9.30
2023-05-20T02:31:42.738Z,9.30
2023-05-20T02:34:09.315Z,9.26
2023-05-20T02:36:36.309Z,9.41
2023-05-20T02:39:02.928Z,9.32
2023-05-20T02:41:29.594Z,9.40
2023-05-20T02:43:56.141Z,9.29
2023-05-20T02:46:22.698Z,9.40
2023-05-20T02:48:49.313Z,9.30
2023-05-20T02:51:16.104Z,9.29
2023-05-20T02:53:42.649Z,9.26
2023-05-20T02:56:09.158Z,9.18
2023-05-20T02:58:35.724Z,9.27
2023-05-20T03:01:03.503Z,9.40
2023-05-20T03:03:30.081Z,9.27
2023-05-20T03:05:56.596Z,9.21
2023-05-20T03:08:23.118Z,9.25
2023-05-20T03:10:50.186Z,9.30
2023-05-20T03:13:16.737Z,9.25
2023-05-20T03:15:45.503Z,9.22
2023-05-20T03:18:12.710Z,9.23
2023-05-20T03:20:40.115Z,9.18
2023-05-20T03:23:06.639Z,9.28
2023-05-20T03:25:33.431Z,9.31
2023-05-20T03:28:00.738Z,9.22
2023-05-20T03:30:27.997Z,9.29
2023-05-20T03:32:58.565Z,9.21
2023-05-20T03:35:25.829Z,9.23
2023-05-20T03:37:53.269Z,9.21
2023-05-20T03:40:23.971Z,9.20
2023-05-20T03:42:52.184Z,9.17
2023-05-20T03:45:19.202Z,9.19
2023-05-20T03:47:45.771Z,9.18
2023-05-20T03:50:12.346Z,9.17
2023-05-20T03:52:40.867Z,9.12
2023-05-20T03:55:07.932Z,9.11
2023-05-20T03:57:34.513Z,9.19
2023-05-20T04:00:02.383Z,9.15
2023-05-20T04:02:30.269Z,9.12
2023-05-20T04:04:57.810Z,9.21
2023-05-20T04:07:24.430Z,9.16
2023-05-20T04:09:52.204Z,9.18
2023-05-20T04:12:19.420Z,9.17
2023-05-20T04:14:46.002Z,9.25
2023-05-20T04:17:12.552Z,9.23
2023-05-20T04:19:39.052Z,9.27
2023-05-20T04:22:05.779Z,9.27
2023-05-20T04:24:32.284Z,9.27
2023-05-20T04:26:58.840Z,9.23
2023-05-20T04:29:25.396Z,9.32
2023-05-20T04:31:52.224Z,9.32
2023-05-20T04:34:20.143Z,9.32
2023-05-20T04:36:47.134Z,9.33
2023-05-20T04:39:13.980Z,9.33
2023-05-20T04:41:40.569Z,9.40
2023-05-20T04:44:07.313Z,9.43
2023-05-20T04:46:33.984Z,9.42
2023-05-20T04:49:00.606Z,9.46
2023-05-20T04:51:27.130Z,9.49
2023-05-20T04:53:53.715Z,9.52
2023-05-20T04:56:20.827Z,9.77
2023-05-20T04:58:47.436Z,10.07
2023-05-20T05:01:14.244Z,10.46
2023-05-20T05:03:40.774Z,10.67
2023-05-20T05:06:07.303Z,10.65
2023-05-20T05:08:33.826Z,10.58
2023-05-20T05:11:00.589Z,10.50
2023-05-20T05:13:27.141Z,10.36
2023-05-20T05:16:02.932Z,10.35
2023-05-20T05:18:29.512Z,10.29
2023-05-20T05:21:02.642Z,10.26
2023-05-20T05:23:29.222Z,10.23
2023-05-20T05:25:55.793Z,10.27
2023-05-20T05:28:22.323Z,10.18
2023-05-20T05:30:48.979Z,10.29
2023-05-20T05:33:15.811Z,10.17
2023-05-20T05:35:42.589Z,10.17
2023-05-20T05:38:09.335Z,10.16
2023-05-20T05:40:36.152Z,10.28
2023-05-20T05:43:02.658Z,10.23
2023-05-20T05:45:29.207Z,10.22
2023-05-20T05:47:55.786Z,10.22
2023-05-20T05:50:22.344Z,10.17
2023-05-20T05:52:48.860Z,10.31
2023-05-20T05:55:15.516Z,10.36
2023-05-20T05:57:42.311Z,10.37
2023-05-20T06:00:09.365Z,10.48
2023-05-20T06:02:36.379Z,10.58
2023-05-20T06:05:03.912Z,10.86
2023-05-20T06:07:30.429Z,11.39
2023-05-20T06:09:57.117Z,11.75
2023-05-20T06:12:23.660Z,12.27
2023-05-20T06:14:50.294Z,12.42
2023-05-20T06:17:16.847Z,12.42
2023-05-20T06:19:43.374Z,12.72
2023-05-20T06:22:09.925Z,13.08
2023-05-20T06:24:36.508Z,12.92
2023-05-20T06:27:03.200Z,12.32
2023-05-20T06:29:29.799Z,12.72
2023-05-20T06:31:56.661Z,12.77
2023-05-20T06:34:23.197Z,12.86
2023-05-20T06:36:49.722Z,12.85
2023-05-20T06:39:16.266Z,13.14
2023-05-20T06:41:42.976Z,12.86
2023-05-20T06:44:09.601Z,12.97
2023-05-20T06:46:36.217Z,13.26
2023-05-20T06:49:03.140Z,13.34
2023-05-20T06:51:29.723Z,13.41
2023-05-20T06:53:56.229Z,13.37
2023-05-20T06:56:22.800Z,13.31
2023-05-20T06:58:51.338Z,13.18
2023-05-20T07:01:18.600Z,13.18
2023-05-20T07:03:45.811Z,13.54
2023-05-20T07:06:12.378Z,13.93
2023-05-20T07:08:38.906Z,13.72
2023-05-20T07:11:05.794Z,14.06
2023-05-20T07:13:32.318Z,14.16
2023-05-20T07:15:58.959Z,13.91
2023-05-20T07:18:25.574Z,13.99
2023-05-20T07:20:52.522Z,13.87
2023-05-20T07:23:19.089Z,13.88
2023-05-20T07:25:45.691Z,13.70
2023-05-20T07:28:12.255Z,13.97
2023-05-20T07:30:38.784Z,14.05
2023-05-20T07:33:05.333Z,14.04
2023-05-20T07:35:32.887Z,13.52
2023-05-20T07:37:59.547Z,13.59
2023-05-20T07:40:26.464Z,13.49
2023-05-20T07:42:53.009Z,13.38
2023-05-20T07:45:19.524Z,13.50
2023-05-20T07:47:46.139Z,13.37
2023-05-20T07:50:12.707Z,13.20
2023-05-20T07:55:08.772Z,13.50
2023-05-20T07:57:35.276Z,13.80
2023-05-20T08:00:01.794Z,14.33
2023-05-20T08:02:28.385Z,14.28
2023-05-20T08:04:55.008Z,14.25
2023-05-20T08:07:22.318Z,14.11
2023-05-20T08:09:48.842Z,14.27
2023-05-20T08:12:15.538Z,14.46
2023-05-20T08:14:42.083Z,14.67
2023-05-20T08:17:08.622Z,14.58
2023-05-20T08:19:35.583Z,14.50
2023-05-20T08:22:02.535Z,14.41
2023-05-20T08:24:29.104Z,14.17
2023-05-20T08:26:55.671Z,13.93
2023-05-20T08:29:22.206Z,13.98
2023-05-20T08:31:48.709Z,14.43
2023-05-20T08:34:15.231Z,14.83
2023-05-20T08:36:42.326Z,14.50
2023-05-20T08:39:08.914Z,14.61
2023-05-20T08:41:35.443Z,14.89
2023-05-20T08:44:02.565Z,15.23
2023-05-20T08:46:29.137Z,15.19
2023-05-20T08:48:55.921Z,15.20
2023-05-20T08:51:23.910Z,15.90
2023-05-20T08:53:50.604Z,15.76
2023-05-20T08:56:17.940Z,15.72
2023-05-20T08:58:44.646Z,15.81
2023-05-20T09:01:11.320Z,15.88
2023-05-20T09:03:37.849Z,16.06
2023-05-20T09:06:08.337Z,16.25
2023-05-20T09:08:34.877Z,16.37
2023-05-20T09:11:01.399Z,16.36
2023-05-20T09:13:28.914Z,16.48
2023-05-20T09:15:55.463Z,16.13
2023-05-20T09:18:22.082Z,15.38
2023-05-20T09:20:50.909Z,15.53
2023-05-20T09:23:19.037Z,15.67
2023-05-20T09:25:45.690Z,15.67
2023-05-20T09:28:12.347Z,15.66
2023-05-20T09:30:38.922Z,15.74
2023-05-20T09:33:05.954Z,15.79
2023-05-20T09:35:35.299Z,16.10
2023-05-20T09:38:01.973Z,16.37
2023-05-20T09:40:28.926Z,16.58
2023-05-20T09:43:01.831Z,16.33
2023-05-20T09:45:28.459Z,16.16
2023-05-20T09:47:55.359Z,16.46
2023-05-20T09:50:22.337Z,16.90
2023-05-20T09:52:52.799Z,16.39
2023-05-20T09:55:21.790Z,16.12
2023-05-20T09:57:48.358Z,15.89
2023-05-20T10:00:17.286Z,15.50
2023-05-20T10:02:45.332Z,15.70
2023-05-20T10:05:33.392Z,16.36
2023-05-20T10:08:12.435Z,16.75
2023-05-20T10:10:54.357Z,16.91
2023-05-20T10:13:43.285Z,16.68
2023-05-20T10:16:18.011Z,15.98
2023-05-20T10:19:01.222Z,15.70
2023-05-20T10:21:27.769Z,15.40
2023-05-20T10:23:54.316Z,15.27
2023-05-20T10:26:22.364Z,15.31
2023-05-20T10:28:48.901Z,15.19
2023-05-20T10:31:17.321Z,15.58
2023-05-20T10:33:44.990Z,15.53
2023-05-20T10:36:21.702Z,15.51
2023-05-20T10:38:58.416Z,15.50
2023-05-20T10:41:26.975Z,15.61
2023-05-20T10:44:03.610Z,15.49
2023-05-20T10:46:41.909Z,15.25
2023-05-20T10:49:22.477Z,15.56
2023-05-20T10:51:51.561Z,15.72
2023-05-20T10:54:18.183Z,16.04
2023-05-20T10:56:53.999Z,16.14
2023-05-20T10:59:21.691Z,16.33
2023-05-20T11:01:48.511Z,16.16
2023-05-20T11:04:16.126Z,15.73
2023-05-20T11:06:50.438Z,15.68
2023-05-20T11:09:17.137Z,15.85
2023-05-20T11:11:43.659Z,15.92
2023-05-20T11:14:13.644Z,16.08
2023-05-20T11:16:40.680Z,15.78
2023-05-20T11:19:08.721Z,15.67
2023-05-20T11:21:35.352Z,15.32
2023-05-20T11:24:02.116Z,15.56
2023-05-20T11:26:29.346Z,15.60
2023-05-20T11:28:56.247Z,15.34
2023-05-20T11:31:24.517Z,15.48
2023-05-20T11:33:51.101Z,15.40
2023-05-20T11:36:27.515Z,15.59
2023-05-20T11:38:55.485Z,15.68
2023-05-20T11:41:25.638Z,15.76
2023-05-20T11:43:55.735Z,16.03
2023-05-20T11:46:22.378Z,15.67
2023-05-20T11:48:53.946Z,16.02
2023-05-20T11:51:29.954Z,16.04
2023-05-20T11:54:01.460Z,15.82
2023-05-20T11:56:31.720Z,16.15
2023-05-20T11:58:59.582Z,16.26
2023-05-20T12:01:27.968Z,16.70
2023-05-20T12:03:54.949Z,16.52
2023-05-20T12:06:21.899Z,16.56
2023-05-20T12:08:48.460Z,16.67
2023-05-20T12:11:15.217Z,16.86
2023-05-20T12:13:41.807Z,17.12
2023-05-20T12:16:08.395Z,16.88
2023-05-20T12:18:34.936Z,16.89
2023-05-20T12:21:01.503Z,16.71
2023-05-20T12:23:30.659Z,16.47
2023-05-20T12:25:57.201Z,16.36
2023-05-20T12:28:23.731Z,16.42
2023-05-20T12:30:50.282Z,16.43
2023-05-20T12:33:16.797Z,16.44
2023-05-20T12:35:43.558Z,16.72
2023-05-20T12:38:10.325Z,16.94
2023-05-20T12:40:37.220Z,16.94
2023-05-20T12:43:04.571Z,16.75
2023-05-20T12:45:31.081Z,16.53
2023-05-20T12:47:57.733Z,16.57
2023-05-20T12:50:24.438Z,16.43
2023-05-20T12:52:51.190Z,16.51
2023-05-20T12:55:17.685Z,16.36
2023-05-20T12:57:44.378Z,16.22
2023-05-20T13:00:11.412Z,16.14
2023-05-20T13:02:39.986Z,16.17
2023-05-20T13:05:06.901Z,16.34
2023-05-20T13:07:33.689Z,16.25
2023-05-20T13:10:00.229Z,16.19
2023-05-20T13:12:26.773Z,16.43
2023-05-20T13:14:53.265Z,16.31
2023-05-20T13:17:19.787Z,15.94
2023-05-20T13:19:46.372Z,15.82
2023-05-20T13:22:12.922Z,15.59
2023-05-20T13:24:39.415Z,15.53
2023-05-20T13:27:06.274Z,15.53
2023-05-20T13:29:32.916Z,15.66
2023-05-20T13:32:01.617Z,15.61
2023-05-20T13:34:28.586Z,16.13
2023-05-20T13:36:55.236Z,15.96
2023-05-20T13:39:21.764Z,15.58
2023-05-20T13:41:48.277Z,15.84
2023-05-20T13:44:14.825Z,15.85
2023-05-20T13:46:41.546Z,16.12
2023-05-20T13:49:08.312Z,15.90
2023-05-20T13:51:34.878Z,16.30
2023-05-20T13:54:01.467Z,16.57
2023-05-20T13:56:28.405Z,17.10
2023-05-20T13:58:54.965Z,16.90
2023-05-20T14:01:21.547Z,16.54
2023-05-20T14:03:48.194Z,16.41
2023-05-20T14:06:18.598Z,16.19
2023-05-20T14:08:46.136Z,16.49
2023-05-20T14:11:12.803Z,16.23
2023-05-20T14:13:39.645Z,16.01
2023-05-20T14:16:06.312Z,15.48
2023-05-20T14:18:32.884Z,15.68
2023-05-20T14:20:59.677Z,15.78
2023-05-20T14:23:26.180Z,15.93
2023-05-20T14:25:52.692Z,15.77
2023-05-20T14:28:19.215Z,15.74
2023-05-20T14:30:45.743Z,15.75
2023-05-20T14:33:12.418Z,15.83
2023-05-20T14:35:38.967Z,15.75
2023-05-20T14:38:05.468Z,15.93
2023-05-20T14:40:32.020Z,15.72
2023-05-20T14:42:58.575Z,15.58
2023-05-20T14:45:25.097Z,15.37
2023-05-20T14:47:51.686Z,15.48
2023-05-20T14:50:18.313Z,15.59
2023-05-20T14:52:44.808Z,15.59
2023-05-20T14:55:11.391Z,15.67
2023-05-20T14:57:37.984Z,15.34
2023-05-20T15:00:05.050Z,15.39
2023-05-20T15:02:31.774Z,15.35
2023-05-20T15:04:58.347Z,15.34
2023-05-20T15:07:24.893Z,15.22
2023-05-20T15:09:51.762Z,15.05
2023-05-20T15:12:18.263Z,15.16
2023-05-20T15:14:44.836Z,15.07
2023-05-20T15:17:11.763Z,15.14
2023-05-20T15:19:41.261Z,15.18
2023-05-20T15:22:08.146Z,15.18
2023-05-20T15:24:34.672Z,15.13
2023-05-20T15:27:01.221Z,14.96
2023-05-20T15:29:27.738Z,15.02
2023-05-20T15:31:54.280Z,14.99
2023-05-20T15:34:21.005Z,14.85
2023-05-20T15:36:47.564Z,14.89
2023-05-20T15:39:14.095Z,14.83
2023-05-20T15:41:42.355Z,14.88
2023-05-20T15:44:09.005Z,15.01
2023-05-20T15:46:35.724Z,15.05
2023-05-20T15:49:02.351Z,15.01
2023-05-20T15:51:28.894Z,15.05
2023-05-20T15:53:55.468Z,15.11
2023-05-20T15:56:22.211Z,15.10
2023-05-20T15:58:48.810Z,14.99
2023-05-20T16:01:15.488Z,15.00
2023-05-20T16:03:42.936Z,14.93
2023-05-20T16:06:10.847Z,14.75
2023-05-20T16:08:37.668Z,14.61
2023-05-20T16:11:04.610Z,14.65
2023-05-20T16:13:31.525Z,14.66
2023-05-20T16:15:58.159Z,14.65
2023-05-20T16:18:24.915Z,14.60
2023-05-20T16:20:51.462Z,14.60
2023-05-20T16:23:18.023Z,14.60
2023-05-20T16:25:44.531Z,14.64
2023-05-20T16:28:11.091Z,14.66
2023-05-20T16:30:37.593Z,14.57
2023-05-20T16:33:04.144Z,14.61
2023-05-20T16:35:30.731Z,14.54
2023-05-20T16:37:57.294Z,14.63
2023-05-20T16:40:23.828Z,14.79
2023-05-20T16:42:50.333Z,14.87
2023-05-20T16:45:16.887Z,14.87
2023-05-20T16:47:43.470Z,14.90
2023-05-20T16:50:10.141Z,14.83
2023-05-20T16:52:37.851Z,14.86
2023-05-20T16:55:07.896Z,14.88
2023-05-20T16:57:35.000Z,14.79
2023-05-20T17:00:01.638Z,14.73
2023-05-20T17:02:28.202Z,14.65
2023-05-20T17:04:54.764Z,14.62
2023-05-20T17:07:21.276Z,14.61
2023-05-20T17:09:47.836Z,14.55
2023-05-20T17:12:14.403Z,14.57
2023-05-20T17:14:40.922Z,14.51
2023-05-20T17:17:09.343Z,14.54
2023-05-20T17:19:36.217Z,14.61
2023-05-20T17:22:02.761Z,14.61
2023-05-20T17:24:29.277Z,14.63
2023-05-20T17:26:56.169Z,14.62
2023-05-20T17:29:22.680Z,14.62
2023-05-20T17:31:49.180Z,14.57
2023-05-20T17:34:15.889Z,14.62
2023-05-20T17:36:42.795Z,14.57
2023-05-20T17:39:09.756Z,14.53
2023-05-20T17:41:36.388Z,14.48
2023-05-20T17:44:02.904Z,14.50
2023-05-20T17:46:29.437Z,14.51
2023-05-20T17:48:56.782Z,14.54
2023-05-20T17:51:23.349Z,14.51
2023-05-20T17:53:49.893Z,14.51
2023-05-20T17:56:16.419Z,14.57
2023-05-20T17:58:44.945Z,14.64
2023-05-20T18:01:11.560Z,14.51
2023-05-20T18:03:39.902Z,14.51
2023-05-20T18:06:06.696Z,14.52
2023-05-20T18:08:33.830Z,14.60
2023-05-20T18:11:00.393Z,14.62
2023-05-20T18:13:26.905Z,14.54
2023-05-20T18:15:53.517Z,14.48
2023-05-20T18:18:20.049Z,14.39
2023-05-20T18:20:46.629Z,14.35
2023-05-20T18:23:13.204Z,14.35
2023-05-20T18:25:41.162Z,14.34
2023-05-20T18:28:09.711Z,14.31
2023-05-20T18:30:36.608Z,14.30
2023-05-20T18:33:03.436Z,14.31
2023-05-20T18:35:29.979Z,14.28
2023-05-20T18:37:56.550Z,14.35
2023-05-20T18:40:23.095Z,14.36
2023-05-20T18:42:49.638Z,14.23
2023-05-20T18:45:16.204Z,14.25
2023-05-20T18:47:42.755Z,14.17
2023-05-20T18:50:09.715Z,14.02
2023-05-20T18:52:36.379Z,14.05
2023-05-20T18:55:02.895Z,13.93
2023-05-20T18:57:29.531Z,13.89
2023-05-20T18:59:56.364Z,13.85
2023-05-20T19:02:23.011Z,13.84
2023-05-20T19:04:49.576Z,13.71
2023-05-20T19:07:16.289Z,13.57
2023-05-20T19:09:42.797Z,13.40
2023-05-20T19:12:09.329Z,13.46
2023-05-20T19:14:36.182Z,13.43
2023-05-20T19:17:03.185Z,13.30
2023-05-20T19:19:29.796Z,13.22
2023-05-20T19:21:56.364Z,13.29
2023-05-20T19:24:23.655Z,13.23
2023-05-20T19:26:50.177Z,13.13
2023-05-20T19:29:16.735Z,13.22
2023-05-20T19:31:43.297Z,13.15
2023-05-20T19:34:10.203Z,13.08
2023-05-20T19:36:38.235Z,13.10
2023-05-20T19:39:04.919Z,13.08
2023-05-20T19:41:31.497Z,13.13
2023-05-20T19:43:58.042Z,13.07
2023-05-20T19:46:24.589Z,13.11
2023-05-20T19:48:51.153Z,13.22
2023-05-20T19:51:17.854Z,13.13
2023-05-20T19:53:44.419Z,13.14
2023-05-20T19:56:12.461Z,12.99
2023-05-20T19:58:38.992Z,12.99
2023-05-20T20:01:06.673Z,12.99
2023-05-20T20:03:34.317Z,13.05
2023-05-20T20:06:00.968Z,13.14
2023-05-20T20:08:27.514Z,13.16
2023-05-20T20:10:54.060Z,13.26
2023-05-20T20:13:20.883Z,13.24
2023-05-20T20:15:47.415Z,13.27
2023-05-20T20:18:14.169Z,13.27
2023-05-20T20:20:40.707Z,13.28
2023-05-20T20:23:07.962Z,13.34
2023-05-20T20:25:38.746Z,13.31
2023-05-20T20:28:08.210Z,13.34
2023-05-20T20:30:35.213Z,13.36
2023-05-20T20:33:04.915Z,13.39
2023-05-20T20:35:31.487Z,13.42
2023-05-20T20:37:57.986Z,13.46
2023-05-20T20:40:25.479Z,13.44
2023-05-20T20:42:54.544Z,13.47
2023-05-20T20:45:24.543Z,13.53
2023-05-20T20:47:54.782Z,13.59
2023-05-20T20:50:21.767Z,13.53
2023-05-20T20:52:48.281Z,13.54
2023-05-20T20:55:14.858Z,13.56
2023-05-20T20:57:41.960Z,13.63
2023-05-20T21:00:21.018Z,13.68
2023-05-20T21:02:48.130Z,13.67
2023-05-20T21:05:16.684Z,13.72
2023-05-20T21:07:46.046Z,13.71
2023-05-20T21:10:12.954Z,13.72
2023-05-20T21:12:39.520Z,13.73
2023-05-20T21:15:06.623Z,13.77
2023-05-20T21:17:33.198Z,13.67
2023-05-20T21:19:59.724Z,13.66
2023-05-20T21:22:26.251Z,13.75
2023-05-20T21:24:52.773Z,13.75
2023-05-20T21:27:19.292Z,13.73
2023-05-20T21:29:45.876Z,13.74
2023-05-20T21:32:12.418Z,13.70
2023-05-20T21:34:38.946Z,13.73
2023-05-20T21:37:05.541Z,13.80
2023-05-20T21:39:32.071Z,13.70
2023-05-20T21:41:58.588Z,13.62
2023-05-20T21:44:25.295Z,13.64
2023-05-20T21:46:51.890Z,13.51
2023-05-20T21:49:18.458Z,13.44
2023-05-20T21:51:45.042Z,13.49
2023-05-20T21:54:11.590Z,13.44
2023-05-20T21:56:39.027Z,13.46
2023-05-20T21:59:05.711Z,13.46
2023-05-20T22:01:32.515Z,13.41
2023-05-20T22:03:59.302Z,13.34
2023-05-20T22:06:26.411Z,13.36
2023-05-20T22:08:53.058Z,13.39
2023-05-20T22:11:19.911Z,13.28
2023-05-20T22:13:46.473Z,13.18
2023-05-20T22:16:14.188Z,13.22
2023-05-20T22:18:41.334Z,13.19
2023-05-20T22:21:08.036Z,13.32
2023-05-20T22:23:34.718Z,13.33
2023-05-20T22:26:01.528Z,13.35
2023-05-20T22:28:28.044Z,13.21
2023-05-20T22:30:54.724Z,13.31
2023-05-20T22:33:22.713Z,13.20
2023-05-20T22:35:49.424Z,13.16
2023-05-20T22:38:15.996Z,13.15
2023-05-20T22:40:42.496Z,13.12
2023-05-20T22:43:09.004Z,13.13
2023-05-20T22:45:35.794Z,13.04
2023-05-20T22:48:03.681Z,13.08
2023-05-20T22:50:30.314Z,13.09
2023-05-20T22:52:56.898Z,13.16
2023-05-20T22:55:23.889Z,13.02
2023-05-20T22:57:50.530Z,12.96
2023-05-20T23:00:18.086Z,12.86
2023-05-20T23:02:45.701Z,12.88
2023-05-20T23:05:12.627Z,12.90
2023-05-20T23:07:39.138Z,12.84
2023-05-20T23:10:05.904Z,12.88
2023-05-20T23:12:32.443Z,12.89
2023-05-20T23:14:58.958Z,12.74
2023-05-20T23:17:25.581Z,12.74
2023-05-20T23:19:52.139Z,12.79
2023-05-20T23:22:18.828Z,12.71
2023-05-20T23:24:45.346Z,12.72
2023-05-20T23:27:11.846Z,12.64
2023-05-20T23:29:38.430Z,12.72
2023-05-20T23:32:05.146Z,12.57
2023-05-20T23:34:31.682Z,12.46
2023-05-20T23:36:58.205Z,12.58
2023-05-20T23:39:24.710Z,12.69
2023-05-20T23:41:51.460Z,12.59
2023-05-20T23:44:17.995Z,12.63
2023-05-20T23:46:44.944Z,12.57
2023-05-20T23:49:12.601Z,12.53
2023-05-20T23:51:39.123Z,12.53
2023-05-20T23:54:05.984Z,12.42
2023-05-20T23:56:32.499Z,12.52
2023-05-20T23:58:59.008Z,12.44
